aviador You're here:

CYBD Decoded Metar

BELLA COOLA ARPT in BC, CANADA
Report Time2017-06-25 20:00:00
UTC Time2017-06-25 20:43:05
Flight Rules vfr VFR
Wind270° at 17 Gusting to 28 kt
W.Decomp.*RWY 23: 16.1 kt HW 5.5 kt RCW
W.Rank270° ranks 1
Current wind is above 270° avg. (8.7)
Visibility9999 m
Phenomena:N/A
Clouds:Few 094 Hf
Few 260 Hf
Expected CloudBase > 4,800 ft AGL from Temp-Dew spread
CeilingNone
Temp23°C (ISA +8)
Dew Point11°C (47% RH)
AAT17.2°C
QNH1012 hPa
Density Alt1,283 ft
Elevation115 ft
Report Wrong Elevation
Raw Report
CYBD 252000Z 27017G28KT 230V300 15SM FEW094 FEW260 23/11 A2988 RMK
ACC1CI1 ACC TR CI TR SLP120 DENSITY ALT 1200FT=

Extra information for CYBD:More info

Metar Taf Metar & Taf Last 4 Metars F.Rules Stats Wind Profile Meteogram Temp Stats Airport Information Weather charts Add Link Nearby VenuesMetar ALERT Operation Metar Decoded Social comments